Time;durP1;ratioP1;P1;durP2;ratioP2;P2;SDS_P1;SDS_P2;PMS_P1;PMS_P2;Temp;Humidity;BMP_temperature;BMP_pressure;BME280_temperature;BME280_humidity;BME280_pressure;Samples;Min_cycle;Max_cycle;Signal;HPM_P1;HPM_P2
2023/01/31 00:01:23;;;;;;;16.37;2.90;;;;;;;;;;5099081;28;20467;-74
2023/01/31 00:03:53;;;;;;;6.23;1.53;;;;;;;;;;5099160;28;20467;-75
2023/01/31 00:06:28;;;;;;;14.60;3.17;;;;;;;;;;5099428;28;20455;-74
2023/01/31 00:08:57;;;;;;;11.77;2.20;;;;;;;;;;5097665;28;20465;-74
2023/01/31 00:11:28;;;;;;;11.77;2.20;;;;;;;;;;5098692;28;20458;-74
2023/01/31 00:13:55;;;;;;;12.60;1.80;;;;;;;;;;5098758;28;20467;-75
2023/01/31 00:16:26;;;;;;;9.83;2.97;;;;;;;;;;5098182;28;20436;-75
2023/01/31 00:18:55;;;;;;;14.70;3.47;;;;;;;;;;5098887;28;20479;-75
2023/01/31 00:21:25;;;;;;;11.23;1.60;;;;;;;;;;5097810;28;21042;-75
2023/01/31 00:23:55;;;;;;;10.00;2.03;;;;;;;;;;5098859;28;20840;-74
2023/01/31 00:26:24;;;;;;;11.23;2.37;;;;;;;;;;5098936;28;20525;-74
2023/01/31 00:28:54;;;;;;;10.33;2.37;;;;;;;;;;5098026;28;20855;-74
2023/01/31 00:31:22;;;;;;;12.10;2.53;;;;;;;;;;5097891;28;20448;-75
2023/01/31 00:33:51;;;;;;;14.87;1.90;;;;;;;;;;5097957;28;20477;-74
2023/01/31 00:36:20;;;;;;;14.80;1.63;;;;;;;;;;5097707;28;20487;-74
2023/01/31 00:38:49;;;;;;;4.10;1.60;;;;;;;;;;5097706;28;20487;-74
2023/01/31 00:41:16;;;;;;;10.87;1.53;;;;;;;;;;5097486;28;20868;-74
2023/01/31 00:43:44;;;;;;;12.10;2.00;;;;;;;;;;5097213;28;20455;-74
2023/01/31 00:46:13;;;;;;;8.80;1.93;;;;;;;;;;5097014;28;20447;-74
2023/01/31 00:48:41;;;;;;;13.20;2.43;;;;;;;;;;5097601;28;20727;-73
2023/01/31 00:51:09;;;;;;;4.37;1.57;;;;;;;;;;5096805;28;20431;-74
2023/01/31 00:53:37;;;;;;;5.43;1.57;;;;;;;;;;5096966;28;20858;-74
2023/01/31 00:56:06;;;;;;;15.17;1.60;;;;;;;;;;5097624;28;20463;-75
2023/01/31 00:58:34;;;;;;;11.53;2.10;;;;;;;;;;5097473;28;20855;-75
2023/01/31 01:01:07;;;;;;;19.47;3.47;;;;;;;;;;5097020;28;20553;-74
2023/01/31 01:03:36;;;;;;;9.80;1.30;;;;;;;;;;5096908;28;20460;-74
2023/01/31 01:06:04;;;;;;;9.07;1.80;;;;;;;;;;5097930;28;20459;-74
2023/01/31 01:08:32;;;;;;;10.17;3.43;;;;;;;;;;5097376;28;20828;-74
2023/01/31 01:11:05;;;;;;;10.17;2.50;;;;;;;;;;5097003;28;20455;-74
2023/01/31 01:13:34;;;;;;;12.60;1.90;;;;;;;;;;5097421;28;20460;-74
2023/01/31 01:16:04;;;;;;;15.33;2.47;;;;;;;;;;5096953;28;20459;-74
2023/01/31 01:18:34;;;;;;;9.63;2.33;;;;;;;;;;5096774;28;20709;-75
2023/01/31 01:21:13;;;;;;;13.47;4.23;;;;;;;;;;5097048;28;20497;-75
2023/01/31 01:23:43;;;;;;;6.23;1.67;;;;;;;;;;5097177;28;20508;-75
2023/01/31 01:26:14;;;;;;;10.77;2.00;;;;;;;;;;5096696;28;20467;-75
2023/01/31 01:28:45;;;;;;;9.23;3.17;;;;;;;;;;5096865;28;20460;-75
2023/01/31 01:31:15;;;;;;;18.03;2.77;;;;;;;;;;5096826;28;20447;-75
2023/01/31 01:33:43;;;;;;;7.10;1.87;;;;;;;;;;5096590;28;20455;-74
2023/01/31 01:36:14;;;;;;;12.60;2.43;;;;;;;;;;5097095;28;20771;-75
2023/01/31 01:38:43;;;;;;;7.53;2.17;;;;;;;;;;5097924;28;20459;-75
2023/01/31 01:41:12;;;;;;;17.53;2.03;;;;;;;;;;5101064;28;20450;-75
2023/01/31 01:43:41;;;;;;;10.87;4.10;;;;;;;;;;5101157;28;20836;-75
2023/01/31 01:46:09;;;;;;;13.77;2.90;;;;;;;;;;5101301;28;20851;-75
2023/01/31 01:48:39;;;;;;;6.13;2.00;;;;;;;;;;5101774;28;20452;-75
2023/01/31 01:51:07;;;;;;;14.90;2.07;;;;;;;;;;5101790;28;20447;-74
2023/01/31 01:53:39;;;;;;;9.83;2.30;;;;;;;;;;5101541;28;20905;-75
2023/01/31 01:56:09;;;;;;;17.50;4.20;;;;;;;;;;5100392;28;20508;-75
2023/01/31 01:58:40;;;;;;;12.53;2.93;;;;;;;;;;5102181;28;20451;-74
2023/01/31 02:01:09;;;;;;;23.33;2.90;;;;;;;;;;5101584;28;20572;-74
2023/01/31 02:03:37;;;;;;;8.17;2.77;;;;;;;;;;5100548;28;20462;-75
2023/01/31 02:06:06;;;;;;;12.47;2.70;;;;;;;;;;5101677;28;20836;-75
2023/01/31 02:08:40;;;;;;;12.27;2.13;;;;;;;;;;5102237;28;20546;-75
2023/01/31 02:11:10;;;;;;;8.60;2.80;;;;;;;;;;5102224;28;20447;-75
2023/01/31 02:13:39;;;;;;;13.10;1.87;;;;;;;;;;5101438;28;20447;-74
2023/01/31 02:16:07;;;;;;;13.10;3.77;;;;;;;;;;5101355;28;20455;-75
2023/01/31 02:18:35;;;;;;;16.90;4.10;;;;;;;;;;5101366;28;20482;-75
2023/01/31 02:21:19;;;;;;;13.20;2.10;;;;;;;;;;5100612;28;20845;-74
2023/01/31 02:24:02;;;;;;;11.10;2.20;;;;;;;;;;5100356;28;20656;-75
2023/01/31 02:26:49;;;;;;;14.70;2.87;;;;;;;;;;5067609;28;20447;-74
2023/01/31 02:29:41;;;;;;;17.17;3.40;;;;;;;;;;5100567;28;20772;-74
2023/01/31 02:32:30;;;;;;;12.40;2.80;;;;;;;;;;5026850;28;20894;-75
2023/01/31 02:35:00;;;;;;;7.03;1.87;;;;;;;;;;5100866;28;20448;-74
2023/01/31 02:37:33;;;;;;;10.60;2.17;;;;;;;;;;5102351;28;20867;-74
2023/01/31 02:40:05;;;;;;;6.80;1.87;;;;;;;;;;5100395;28;20475;-74
2023/01/31 02:42:36;;;;;;;10.67;3.20;;;;;;;;;;5100840;28;20468;-74
2023/01/31 02:45:11;;;;;;;8.60;1.60;;;;;;;;;;5101319;28;20448;-75
2023/01/31 02:47:47;;;;;;;9.47;2.50;;;;;;;;;;5100352;28;20443;-75
2023/01/31 02:50:19;;;;;;;12.63;2.20;;;;;;;;;;5099989;28;20701;-74
2023/01/31 02:52:49;;;;;;;9.10;2.60;;;;;;;;;;5100337;28;20540;-74
2023/01/31 02:58:07;;;;;;;13.23;2.10;;;;;;;;;;5099689;28;20427;-75
2023/01/31 03:00:36;;;;;;;15.33;2.10;;;;;;;;;;5099681;28;20487;-74
2023/01/31 03:03:07;;;;;;;6.40;2.80;;;;;;;;;;5099712;28;20486;-75
2023/01/31 03:05:34;;;;;;;16.57;2.00;;;;;;;;;;5099847;28;20455;-75
2023/01/31 03:08:04;;;;;;;8.00;1.83;;;;;;;;;;5100130;28;20451;-74
2023/01/31 03:10:56;;;;;;;8.10;2.27;;;;;;;;;;5100193;28;20518;-75
2023/01/31 03:13:34;;;;;;;13.10;2.47;;;;;;;;;;5079563;28;20447;-75
2023/01/31 03:19:02;;;;;;;8.97;2.10;;;;;;;;;;5098871;28;20434;-74
2023/01/31 03:21:33;;;;;;;4.43;1.37;;;;;;;;;;5099286;28;20448;-75
2023/01/31 03:24:01;;;;;;;12.47;2.10;;;;;;;;;;5099036;28;20448;-74
2023/01/31 03:26:29;;;;;;;6.67;1.40;;;;;;;;;;5098930;28;20456;-75
2023/01/31 03:28:58;;;;;;;6.30;2.77;;;;;;;;;;5099306;28;20451;-74
2023/01/31 03:31:27;;;;;;;6.87;1.80;;;;;;;;;;5106017;28;20885;-74
2023/01/31 03:33:56;;;;;;;13.57;1.60;;;;;;;;;;5119904;28;20447;-74
2023/01/31 03:36:30;;;;;;;11.03;3.40;;;;;;;;;;5119296;28;20539;-74
2023/01/31 03:39:04;;;;;;;8.37;1.53;;;;;;;;;;5119202;28;20438;-74
2023/01/31 03:41:35;;;;;;;11.00;2.10;;;;;;;;;;5119658;28;20498;-74
2023/01/31 03:44:04;;;;;;;13.27;1.67;;;;;;;;;;5119243;28;20451;-73
2023/01/31 03:46:33;;;;;;;10.33;2.50;;;;;;;;;;5119746;28;20455;-74
2023/01/31 03:49:03;;;;;;;18.07;1.83;;;;;;;;;;5118941;28;20862;-74
2023/01/31 03:51:33;;;;;;;8.93;1.57;;;;;;;;;;5118804;28;20488;-74
2023/01/31 03:54:02;;;;;;;16.67;2.67;;;;;;;;;;5119974;28;20447;-73
2023/01/31 03:56:33;;;;;;;8.73;2.27;;;;;;;;;;5119881;28;20458;-74
2023/01/31 03:59:01;;;;;;;11.10;2.20;;;;;;;;;;5119295;28;20439;-74
2023/01/31 04:01:33;;;;;;;6.50;1.93;;;;;;;;;;5118328;28;20483;-74
2023/01/31 04:04:03;;;;;;;10.37;2.50;;;;;;;;;;5119016;28;20788;-73
2023/01/31 04:06:32;;;;;;;5.77;1.57;;;;;;;;;;5118933;28;20446;-75
2023/01/31 04:09:00;;;;;;;9.40;2.97;;;;;;;;;;5119154;28;20447;-74
2023/01/31 04:11:28;;;;;;;10.70;2.57;;;;;;;;;;5119497;28;20463;-73
2023/01/31 04:13:56;;;;;;;6.20;1.50;;;;;;;;;;5118595;28;20447;-74
2023/01/31 04:16:24;;;;;;;14.53;4.77;;;;;;;;;;5118791;28;20858;-73
2023/01/31 04:18:52;;;;;;;11.43;2.00;;;;;;;;;;5118185;28;20461;-73
2023/01/31 04:21:20;;;;;;;7.13;2.40;;;;;;;;;;5118570;28;20482;-73
2023/01/31 04:23:49;;;;;;;11.63;2.03;;;;;;;;;;5103842;28;20455;-73
2023/01/31 04:26:16;;;;;;;14.73;2.80;;;;;;;;;;5100321;28;20459;-74
2023/01/31 04:28:44;;;;;;;8.90;2.67;;;;;;;;;;5099449;28;20524;-74
2023/01/31 04:31:12;;;;;;;6.50;1.73;;;;;;;;;;5097689;28;20450;-74
2023/01/31 04:33:40;;;;;;;6.10;2.00;;;;;;;;;;5098210;28;20540;-73
2023/01/31 04:36:09;;;;;;;5.90;2.30;;;;;;;;;;5098156;28;21080;-74
2023/01/31 04:38:36;;;;;;;11.53;2.00;;;;;;;;;;5097630;28;20508;-73
2023/01/31 04:41:05;;;;;;;8.70;2.37;;;;;;;;;;5098821;28;20491;-74
2023/01/31 04:43:33;;;;;;;9.83;1.97;;;;;;;;;;5097546;28;20463;-74
2023/01/31 04:46:01;;;;;;;8.47;2.40;;;;;;;;;;5097132;28;20444;-72
2023/01/31 04:48:29;;;;;;;5.37;1.40;;;;;;;;;;5098269;28;20562;-74
2023/01/31 04:50:56;;;;;;;8.77;1.77;;;;;;;;;;5097825;28;20506;-74
2023/01/31 04:53:24;;;;;;;17.10;2.03;;;;;;;;;;5098991;28;20444;-74
2023/01/31 04:55:54;;;;;;;11.90;3.07;;;;;;;;;;5097150;28;20851;-73
2023/01/31 04:58:24;;;;;;;6.73;1.63;;;;;;;;;;5098652;28;20448;-74
2023/01/31 05:00:51;;;;;;;5.50;1.77;;;;;;;;;;5096850;28;20545;-74
2023/01/31 05:03:19;;;;;;;8.83;2.10;;;;;;;;;;5098253;28;20495;-74
2023/01/31 05:05:48;;;;;;;5.57;1.63;;;;;;;;;;5096830;28;20458;-74
2023/01/31 05:08:16;;;;;;;9.53;1.87;;;;;;;;;;5097380;28;20701;-74
2023/01/31 05:10:44;;;;;;;8.03;2.50;;;;;;;;;;5096772;28;20702;-74
2023/01/31 05:13:13;;;;;;;8.20;1.90;;;;;;;;;;5097294;28;20720;-74
2023/01/31 05:15:42;;;;;;;13.87;2.57;;;;;;;;;;5097267;28;20463;-73
2023/01/31 05:18:10;;;;;;;8.53;2.30;;;;;;;;;;5097828;28;20467;-74
2023/01/31 05:20:39;;;;;;;7.70;2.03;;;;;;;;;;5101171;28;20471;-72
2023/01/31 05:23:08;;;;;;;4.23;1.07;;;;;;;;;;5115910;28;20863;-73
2023/01/31 05:25:37;;;;;;;10.73;2.43;;;;;;;;;;5118479;28;20442;-73
2023/01/31 05:28:07;;;;;;;5.47;1.40;;;;;;;;;;5102514;28;20452;-73
2023/01/31 05:30:39;;;;;;;10.83;1.70;;;;;;;;;;5098149;28;20471;-73
2023/01/31 05:33:12;;;;;;;13.23;2.23;;;;;;;;;;5097503;28;20456;-73
2023/01/31 05:35:41;;;;;;;13.20;3.77;;;;;;;;;;5097470;28;20472;-73
2023/01/31 05:38:12;;;;;;;12.57;2.70;;;;;;;;;;5097562;28;20471;-73
2023/01/31 05:40:41;;;;;;;6.03;1.80;;;;;;;;;;5099717;28;20505;-73
2023/01/31 05:43:13;;;;;;;16.10;4.53;;;;;;;;;;5096845;28;20443;-73
2023/01/31 05:45:41;;;;;;;17.07;3.27;;;;;;;;;;5104987;28;20446;-74
2023/01/31 05:48:42;;;;;;;4.80;1.67;;;;;;;;;;5117083;28;20458;-75
2023/01/31 05:51:13;;;;;;;13.70;2.80;;;;;;;;;;5116481;28;20442;-73
2023/01/31 05:53:52;;;;;;;;;;;;;;;;;;;;;
2023/01/31 05:56:22;;;;;;;12.77;2.83;;;;;;;;;;5104104;28;20811;-73
2023/01/31 05:58:57;;;;;;;17.23;2.80;;;;;;;;;;5098078;28;20841;-73
2023/01/31 06:01:29;;;;;;;25.17;4.03;;;;;;;;;;5096918;28;20483;-74
2023/01/31 06:04:04;;;;;;;15.80;3.40;;;;;;;;;;5097017;28;20495;-73
2023/01/31 06:06:35;;;;;;;25.03;4.73;;;;;;;;;;5112400;28;20434;-73
2023/01/31 06:09:03;;;;;;;18.67;2.90;;;;;;;;;;5098973;28;20451;-73
2023/01/31 06:11:31;;;;;;;13.60;3.07;;;;;;;;;;5097393;28;20447;-74
2023/01/31 06:13:59;;;;;;;7.30;2.17;;;;;;;;;;5096377;28;20465;-73
2023/01/31 06:16:26;;;;;;;11.70;3.83;;;;;;;;;;5097056;28;20450;-74
2023/01/31 06:18:56;;;;;;;11.07;2.33;;;;;;;;;;5106859;28;20482;-75
2023/01/31 06:21:25;;;;;;;10.50;2.83;;;;;;;;;;5109656;28;20482;-74
2023/01/31 06:23:53;;;;;;;14.07;2.80;;;;;;;;;;5117133;28;21105;-74
2023/01/31 06:26:21;;;;;;;5.53;2.30;;;;;;;;;;5120594;28;20850;-74
2023/01/31 06:28:50;;;;;;;6.60;1.77;;;;;;;;;;5120072;28;20455;-74
2023/01/31 06:31:19;;;;;;;9.70;2.73;;;;;;;;;;5120428;28;20967;-74
2023/01/31 06:33:46;;;;;;;11.37;3.23;;;;;;;;;;5119787;28;20454;-74
2023/01/31 06:36:14;;;;;;;16.60;5.37;;;;;;;;;;5120975;28;20474;-74
2023/01/31 06:38:43;;;;;;;7.13;2.43;;;;;;;;;;5119918;28;20455;-75
2023/01/31 06:41:13;;;;;;;6.20;2.43;;;;;;;;;;5118138;28;20521;-74
2023/01/31 06:43:43;;;;;;;12.70;2.17;;;;;;;;;;5120728;28;20435;-74
2023/01/31 06:46:11;;;;;;;13.53;2.93;;;;;;;;;;5119195;28;20447;-73
2023/01/31 06:48:39;;;;;;;12.63;2.20;;;;;;;;;;5119989;28;20565;-73
2023/01/31 06:51:07;;;;;;;11.50;2.60;;;;;;;;;;5119884;28;20443;-73
2023/01/31 06:53:35;;;;;;;12.77;2.83;;;;;;;;;;5119649;28;20462;-74
2023/01/31 06:56:04;;;;;;;7.13;2.10;;;;;;;;;;5120519;28;20461;-74
2023/01/31 06:58:32;;;;;;;15.47;2.63;;;;;;;;;;5120388;28;20459;-73
2023/01/31 07:01:04;;;;;;;16.57;3.43;;;;;;;;;;5115238;28;20471;-73
2023/01/31 07:03:32;;;;;;;19.77;2.67;;;;;;;;;;5100301;28;20455;-73
2023/01/31 07:06:01;;;;;;;11.20;2.70;;;;;;;;;;5098699;28;21074;-73
2023/01/31 07:09:08;;;;;;;9.47;1.97;;;;;;;;;;5099555;28;20460;-74
2023/01/31 07:11:39;;;;;;;12.97;2.83;;;;;;;;;;5098588;28;20452;-73
2023/01/31 07:14:07;;;;;;;11.23;2.40;;;;;;;;;;5099032;28;20460;-74
2023/01/31 07:16:36;;;;;;;13.90;3.33;;;;;;;;;;5098900;28;20451;-74
2023/01/31 07:19:04;;;;;;;11.60;3.30;;;;;;;;;;5112247;28;20462;-75
2023/01/31 07:21:32;;;;;;;8.77;2.40;;;;;;;;;;5118406;28;20897;-75
2023/01/31 07:24:00;;;;;;;8.20;2.60;;;;;;;;;;5118320;28;20461;-73
2023/01/31 07:26:28;;;;;;;8.43;2.43;;;;;;;;;;5119196;28;20774;-74
2023/01/31 07:29:00;;;;;;;10.20;3.07;;;;;;;;;;5118306;28;20882;-73
2023/01/31 07:31:28;;;;;;;6.50;2.20;;;;;;;;;;5119126;28;20788;-74
2023/01/31 07:34:01;;;;;;;26.97;6.80;;;;;;;;;;5118021;28;20458;-74
2023/01/31 07:36:30;;;;;;;13.43;3.30;;;;;;;;;;5117063;28;20491;-74
2023/01/31 07:39:00;;;;;;;11.80;2.90;;;;;;;;;;5116357;28;20489;-75
2023/01/31 07:41:28;;;;;;;13.57;2.80;;;;;;;;;;5110981;28;20484;-74
2023/01/31 07:43:56;;;;;;;13.50;4.17;;;;;;;;;;5118965;28;20958;-74
2023/01/31 07:46:27;;;;;;;11.47;2.90;;;;;;;;;;5117865;28;20847;-74
2023/01/31 07:48:55;;;;;;;8.67;2.40;;;;;;;;;;5107496;28;20866;-74
2023/01/31 07:51:25;;;;;;;10.83;3.23;;;;;;;;;;5117995;28;20541;-73
2023/01/31 07:53:55;;;;;;;10.03;3.17;;;;;;;;;;5116269;28;20477;-74
2023/01/31 07:56:26;;;;;;;15.90;3.07;;;;;;;;;;5119362;28;20815;-73
2023/01/31 07:58:53;;;;;;;11.10;3.30;;;;;;;;;;5116412;28;20473;-74
2023/01/31 08:04:12;;;;;;;9.77;2.37;;;;;;;;;;5118332;28;20467;-74
2023/01/31 08:06:41;;;;;;;9.37;3.03;;;;;;;;;;5101884;28;20463;-73
2023/01/31 08:09:09;;;;;;;20.93;5.30;;;;;;;;;;5106638;28;20467;-73
2023/01/31 08:11:41;;;;;;;15.63;6.50;;;;;;;;;;5117455;28;20447;-73
2023/01/31 08:14:15;;;;;;;9.97;3.70;;;;;;;;;;5117195;28;20450;-74
2023/01/31 08:16:42;;;;;;;18.63;4.80;;;;;;;;;;5116073;28;20539;-73
2023/01/31 08:19:12;;;;;;;18.90;4.50;;;;;;;;;;5117075;28;20585;-74
2023/01/31 08:21:45;;;;;;;13.20;4.00;;;;;;;;;;5117007;28;20497;-73
2023/01/31 08:24:12;;;;;;;13.97;3.80;;;;;;;;;;5117050;28;20455;-73
2023/01/31 08:26:44;;;;;;;8.63;3.60;;;;;;;;;;5119394;28;20725;-74
2023/01/31 08:29:12;;;;;;;12.90;3.97;;;;;;;;;;5117426;28;20610;-73
2023/01/31 08:31:43;;;;;;;16.10;4.30;;;;;;;;;;5114729;28;20961;-72
2023/01/31 08:34:32;;;;;;;13.00;5.10;;;;;;;;;;5116111;28;20455;-73
2023/01/31 08:37:00;;;;;;;5.23;2.53;;;;;;;;;;5101810;28;20456;-73
2023/01/31 08:39:31;;;;;;;25.80;9.00;;;;;;;;;;5106546;28;20462;-73
2023/01/31 08:41:59;;;;;;;14.60;4.63;;;;;;;;;;5117457;28;20547;-73
2023/01/31 08:44:29;;;;;;;12.43;4.43;;;;;;;;;;5119816;28;20454;-73
2023/01/31 08:47:03;;;;;;;13.57;4.60;;;;;;;;;;5116287;28;20934;-73
2023/01/31 08:49:41;;;;;;;15.27;5.97;;;;;;;;;;5115046;28;21165;-73
2023/01/31 08:54:53;;;;;;;12.50;4.27;;;;;;;;;;5115576;28;20807;-74
2023/01/31 08:57:23;;;;;;;8.90;4.50;;;;;;;;;;5117353;28;21150;-74
2023/01/31 09:00:05;;;;;;;7.30;4.33;;;;;;;;;;5115741;28;20474;-74
2023/01/31 09:02:37;;;;;;;14.23;3.20;;;;;;;;;;5113039;28;20475;-73
2023/01/31 09:05:11;;;;;;;11.63;4.10;;;;;;;;;;5110145;28;20551;-72
2023/01/31 09:07:41;;;;;;;11.97;4.57;;;;;;;;;;5100350;28;20469;-74
2023/01/31 09:10:14;;;;;;;11.13;4.10;;;;;;;;;;5113880;28;20466;-73
2023/01/31 09:12:53;;;;;;;17.97;4.97;;;;;;;;;;5113606;28;20435;-73
2023/01/31 09:15:21;;;;;;;13.27;4.00;;;;;;;;;;5100117;28;20882;-75
2023/01/31 09:17:52;;;;;;;11.83;4.17;;;;;;;;;;5106947;28;20465;-73
2023/01/31 09:20:22;;;;;;;15.40;5.40;;;;;;;;;;5116746;28;20553;-74
2023/01/31 09:22:49;;;;;;;16.27;4.10;;;;;;;;;;5117470;28;20898;-74
2023/01/31 09:25:20;;;;;;;20.40;4.00;;;;;;;;;;5117133;28;20455;-73
2023/01/31 09:27:51;;;;;;;9.93;4.10;;;;;;;;;;5118655;28;21223;-73
2023/01/31 09:33:02;;;;;;;9.20;3.33;;;;;;;;;;5116841;28;20531;-73
2023/01/31 09:36:03;;;;;;;13.73;6.83;;;;;;;;;;5117862;28;20485;-73
2023/01/31 09:38:36;;;;;;;6.33;2.33;;;;;;;;;;5113554;28;20504;-73
2023/01/31 09:41:18;;;;;;;12.90;4.90;;;;;;;;;;5116992;28;20883;-74
2023/01/31 09:43:51;;;;;;;13.10;4.20;;;;;;;;;;5111001;28;20477;-73
2023/01/31 09:46:20;;;;;;;11.53;3.80;;;;;;;;;;5115612;28;20523;-73
2023/01/31 09:48:56;;;;;;;13.97;4.67;;;;;;;;;;5114517;28;20461;-72
2023/01/31 09:51:27;;;;;;;14.20;4.07;;;;;;;;;;5116392;28;20479;-73
2023/01/31 09:54:21;;;;;;;8.30;2.70;;;;;;;;;;5116842;28;20466;-75
2023/01/31 09:56:59;;;;;;;5.43;3.50;;;;;;;;;;5099537;28;20447;-74
2023/01/31 09:59:41;;;;;;;13.40;4.37;;;;;;;;;;5115629;28;20949;-73
2023/01/31 10:02:16;;;;;;;12.80;4.43;;;;;;;;;;5118048;28;21004;-72
2023/01/31 10:05:15;;;;;;;;;;;;;;;;;;;;;
2023/01/31 10:07:47;;;;;;;18.07;5.67;;;;;;;;;;5114539;28;20459;-72
2023/01/31 10:10:20;;;;;;;9.97;5.30;;;;;;;;;;5121001;28;20515;-73
2023/01/31 10:12:52;;;;;;;14.20;5.50;;;;;;;;;;5119209;28;20460;-73
2023/01/31 10:15:26;;;;;;;9.53;4.20;;;;;;;;;;5118015;28;20514;-72
2023/01/31 10:17:57;;;;;;;13.67;4.77;;;;;;;;;;5121197;28;20727;-72
2023/01/31 10:20:34;;;;;;;10.93;4.53;;;;;;;;;;5119485;28;20457;-74
2023/01/31 10:23:08;;;;;;;9.63;5.40;;;;;;;;;;5106067;28;20919;-73
2023/01/31 10:25:39;;;;;;;8.13;3.20;;;;;;;;;;5105272;28;20471;-73
2023/01/31 10:28:15;;;;;;;8.83;4.30;;;;;;;;;;5117690;28;20771;-74
2023/01/31 10:30:49;;;;;;;8.97;5.00;;;;;;;;;;5101509;28;20486;-73
2023/01/31 10:33:31;;;;;;;9.97;4.77;;;;;;;;;;5102422;28;20520;-74
2023/01/31 10:36:05;;;;;;;4.57;3.27;;;;;;;;;;5104377;28;20523;-75
2023/01/31 10:38:40;;;;;;;6.50;4.30;;;;;;;;;;5119941;28;20454;-74
2023/01/31 10:41:13;;;;;;;10.97;5.60;;;;;;;;;;5113120;28;20438;-75
2023/01/31 10:43:54;;;;;;;12.80;5.83;;;;;;;;;;5112281;28;20514;-73
2023/01/31 10:46:22;;;;;;;10.80;4.97;;;;;;;;;;5117983;28;21024;-73
2023/01/31 10:51:53;;;;;;;13.50;7.53;;;;;;;;;;5116340;28;20458;-74
2023/01/31 10:54:26;;;;;;;14.13;5.80;;;;;;;;;;5099732;28;20491;-75
2023/01/31 10:57:00;;;;;;;8.80;4.27;;;;;;;;;;5106628;28;20451;-75
2023/01/31 10:59:47;;;;;;;17.23;5.20;;;;;;;;;;5119153;28;20924;-74
2023/01/31 11:02:25;;;;;;;7.80;4.87;;;;;;;;;;5118192;28;20482;-74
2023/01/31 11:07:51;;;;;;;12.83;7.03;;;;;;;;;;5115409;28;20524;-75
2023/01/31 11:10:26;;;;;;;15.47;6.77;;;;;;;;;;5098003;28;20757;-74
2023/01/31 11:12:58;;;;;;;10.70;5.47;;;;;;;;;;5098667;28;20469;-72
2023/01/31 11:15:30;;;;;;;14.43;7.67;;;;;;;;;;5097740;28;20460;-74
2023/01/31 11:18:11;;;;;;;11.50;7.50;;;;;;;;;;5112357;28;20469;-74
2023/01/31 11:20:58;;;;;;;14.07;5.13;;;;;;;;;;5114728;28;20447;-75
2023/01/31 11:23:30;;;;;;;10.80;5.50;;;;;;;;;;5108849;28;20536;-74
2023/01/31 11:26:05;;;;;;;9.67;5.63;;;;;;;;;;5104091;28;20532;-73
2023/01/31 11:28:36;;;;;;;14.03;6.20;;;;;;;;;;5113135;28;20442;-73
2023/01/31 11:31:08;;;;;;;10.30;5.33;;;;;;;;;;5117765;28;20457;-75
2023/01/31 11:33:46;;;;;;;8.23;5.63;;;;;;;;;;5117857;28;20458;-73
2023/01/31 11:36:23;;;;;;;15.93;8.70;;;;;;;;;;5107209;28;20448;-75
2023/01/31 11:38:56;;;;;;;15.77;6.10;;;;;;;;;;5098116;28;20447;-75
2023/01/31 11:41:31;;;;;;;10.60;6.60;;;;;;;;;;5096372;28;20504;-74
2023/01/31 11:44:11;;;;;;;9.60;6.80;;;;;;;;;;5098972;28;20486;-74
2023/01/31 11:46:43;;;;;;;13.30;9.47;;;;;;;;;;5096874;28;20487;-75
2023/01/31 11:49:12;;;;;;;9.93;6.83;;;;;;;;;;5096782;28;20832;-74
2023/01/31 11:51:40;;;;;;;14.27;7.90;;;;;;;;;;5097479;28;20844;-75
2023/01/31 11:54:08;;;;;;;18.33;7.90;;;;;;;;;;5098312;28;20456;-75
2023/01/31 11:56:37;;;;;;;11.43;6.70;;;;;;;;;;5097739;28;20452;-75
2023/01/31 11:59:17;;;;;;;15.77;6.53;;;;;;;;;;5117666;28;20435;-75
2023/01/31 12:01:49;;;;;;;15.47;8.50;;;;;;;;;;5117978;28;20516;-75
2023/01/31 12:04:30;;;;;;;12.83;7.60;;;;;;;;;;5116707;28;20455;-74
2023/01/31 12:07:09;;;;;;;10.90;6.07;;;;;;;;;;5105289;28;20459;-74
2023/01/31 12:09:44;;;;;;;13.10;6.97;;;;;;;;;;5100001;28;20474;-75
2023/01/31 12:12:30;;;;;;;9.17;5.13;;;;;;;;;;5116740;28;20438;-74
2023/01/31 12:15:16;;;;;;;12.80;6.53;;;;;;;;;;5117649;28;20442;-75
2023/01/31 12:17:50;;;;;;;9.43;5.30;;;;;;;;;;5117650;28;21036;-75
2023/01/31 12:20:26;;;;;;;8.63;5.50;;;;;;;;;;5115669;28;20438;-74
2023/01/31 12:23:06;;;;;;;12.50;6.20;;;;;;;;;;5108781;28;20478;-74
2023/01/31 12:25:48;;;;;;;9.43;5.40;;;;;;;;;;5115611;28;20457;-74
2023/01/31 12:28:24;;;;;;;18.47;7.97;;;;;;;;;;5117821;28;20499;-74
2023/01/31 12:31:17;;;;;;;8.63;5.87;;;;;;;;;;5117813;28;20455;-75
2023/01/31 12:34:05;;;;;;;6.00;3.93;;;;;;;;;;5116953;28;20545;-74
2023/01/31 12:36:39;;;;;;;10.60;4.70;;;;;;;;;;5117373;28;20587;-75
2023/01/31 12:39:28;;;;;;;10.23;5.00;;;;;;;;;;5116859;28;20454;-73
2023/01/31 12:42:04;;;;;;;8.40;5.67;;;;;;;;;;5116314;28;20466;-74
2023/01/31 12:44:42;;;;;;;6.63;3.90;;;;;;;;;;5117184;28;20470;-74
2023/01/31 12:47:18;;;;;;;7.27;4.67;;;;;;;;;;5113579;28;20551;-75
2023/01/31 12:50:01;;;;;;;6.63;3.70;;;;;;;;;;5115820;28;20495;-75
2023/01/31 12:52:33;;;;;;;12.33;5.03;;;;;;;;;;5115589;28;20459;-74
2023/01/31 12:55:13;;;;;;;10.63;4.23;;;;;;;;;;5114303;28;20472;-75
2023/01/31 12:57:46;;;;;;;6.33;2.97;;;;;;;;;;5095791;28;21049;-75
2023/01/31 13:00:28;;;;;;;12.33;5.40;;;;;;;;;;5096027;28;20538;-75
2023/01/31 13:03:12;;;;;;;7.90;3.87;;;;;;;;;;5094925;28;20584;-75
2023/01/31 13:05:52;;;;;;;9.77;5.63;;;;;;;;;;5098904;28;20866;-75
2023/01/31 13:08:22;;;;;;;4.63;2.50;;;;;;;;;;5115130;28;20450;-74
2023/01/31 13:10:54;;;;;;;8.70;3.73;;;;;;;;;;5115475;28;20556;-74
2023/01/31 13:13:25;;;;;;;8.50;3.80;;;;;;;;;;5116161;28;20970;-74
2023/01/31 13:15:57;;;;;;;4.50;3.00;;;;;;;;;;5112570;28;20439;-74
2023/01/31 13:18:25;;;;;;;5.90;3.70;;;;;;;;;;5116915;28;20466;-74
2023/01/31 13:20:59;;;;;;;6.90;3.00;;;;;;;;;;5111397;28;20451;-74
2023/01/31 13:23:30;;;;;;;5.50;3.17;;;;;;;;;;5117572;28;20563;-72
2023/01/31 13:26:03;;;;;;;2.70;2.17;;;;;;;;;;5115474;28;20459;-73
2023/01/31 13:28:38;;;;;;;4.10;2.60;;;;;;;;;;5113713;28;20838;-74
2023/01/31 13:31:09;;;;;;;6.47;3.57;;;;;;;;;;5115610;28;20533;-74
2023/01/31 13:33:38;;;;;;;5.80;2.43;;;;;;;;;;5114918;28;20459;-75
2023/01/31 13:36:17;;;;;;;3.00;1.97;;;;;;;;;;5115717;28;20474;-74
2023/01/31 13:38:49;;;;;;;4.23;1.50;;;;;;;;;;5107350;28;20444;-73
2023/01/31 13:41:20;;;;;;;4.10;1.90;;;;;;;;;;5104208;28;20906;-74
2023/01/31 13:43:54;;;;;;;4.30;2.10;;;;;;;;;;5119627;28;20508;-72
2023/01/31 13:46:28;;;;;;;5.03;2.93;;;;;;;;;;5102568;28;20470;-73
2023/01/31 13:49:00;;;;;;;2.77;1.47;;;;;;;;;;5104458;28;20450;-75
2023/01/31 13:51:36;;;;;;;3.80;2.40;;;;;;;;;;5116904;28;20908;-74
2023/01/31 13:54:17;;;;;;;4.00;2.60;;;;;;;;;;5108943;28;20451;-74
2023/01/31 13:56:55;;;;;;;2.93;2.40;;;;;;;;;;5119438;28;20470;-73
2023/01/31 13:59:32;;;;;;;4.90;3.00;;;;;;;;;;5118887;28;20795;-73
2023/01/31 14:02:01;;;;;;;4.30;2.60;;;;;;;;;;5108833;28;20470;-73
2023/01/31 14:04:34;;;;;;;2.80;2.07;;;;;;;;;;5118300;28;20547;-74
2023/01/31 14:07:30;;;;;;;4.27;2.20;;;;;;;;;;5101660;28;20463;-73
2023/01/31 14:10:17;;;;;;;4.93;3.23;;;;;;;;;;5116368;28;20453;-74
2023/01/31 14:12:49;;;;;;;5.90;3.17;;;;;;;;;;5118738;28;20482;-73
2023/01/31 14:15:41;;;;;;;5.93;2.30;;;;;;;;;;5119184;28;20874;-74
2023/01/31 14:18:15;;;;;;;3.87;2.20;;;;;;;;;;5115799;28;20506;-73
2023/01/31 14:20:48;;;;;;;2.67;1.40;;;;;;;;;;5099208;28;20470;-73
2023/01/31 14:23:32;;;;;;;7.43;3.90;;;;;;;;;;5099100;28;20506;-72
2023/01/31 14:26:02;;;;;;;3.90;2.47;;;;;;;;;;5097971;28;20447;-74
2023/01/31 14:28:35;;;;;;;7.00;3.17;;;;;;;;;;5098684;28;20946;-73
2023/01/31 14:31:12;;;;;;;5.70;2.47;;;;;;;;;;5109298;28;20904;-71
2023/01/31 14:33:47;;;;;;;4.27;2.63;;;;;;;;;;5119894;28;20472;-73
2023/01/31 14:36:38;;;;;;;5.50;2.37;;;;;;;;;;5118574;28;20460;-73
2023/01/31 14:39:28;;;;;;;3.80;2.10;;;;;;;;;;5115582;28;20442;-73
2023/01/31 14:42:08;;;;;;;4.27;2.00;;;;;;;;;;5102369;28;21093;-71
2023/01/31 14:44:43;;;;;;;4.83;2.60;;;;;;;;;;5098654;28;20479;-73
2023/01/31 14:47:17;;;;;;;4.07;2.03;;;;;;;;;;5097493;28;20751;-74
2023/01/31 14:50:01;;;;;;;2.67;1.70;;;;;;;;;;5099068;28;20526;-73
2023/01/31 14:52:49;;;;;;;7.00;2.03;;;;;;;;;;5098307;28;20451;-75
2023/01/31 14:55:48;;;;;;;5.80;2.43;;;;;;;;;;5109020;28;20445;-74
2023/01/31 14:58:21;;;;;;;2.87;1.50;;;;;;;;;;5015786;28;20530;-75
2023/01/31 15:00:53;;;;;;;3.57;1.60;;;;;;;;;;5030312;28;20443;-75
2023/01/31 15:03:22;;;;;;;6.80;1.80;;;;;;;;;;5112522;28;20491;-74
2023/01/31 15:05:51;;;;;;;3.47;1.83;;;;;;;;;;5113621;28;20451;-74
2023/01/31 15:08:48;;;;;;;8.03;2.43;;;;;;;;;;5113186;28;20557;-73
2023/01/31 15:11:40;;;;;;;4.23;2.27;;;;;;;;;;5069773;28;20732;-73
2023/01/31 15:14:35;;;;;;;6.63;2.97;;;;;;;;;;5114292;28;20696;-72
2023/01/31 15:17:08;;;;;;;4.30;2.07;;;;;;;;;;5109290;28;20567;-73
2023/01/31 15:19:42;;;;;;;6.03;3.20;;;;;;;;;;5115891;28;20450;-74
2023/01/31 15:22:12;;;;;;;4.77;2.13;;;;;;;;;;5108571;28;20451;-73
2023/01/31 15:24:41;;;;;;;4.60;2.03;;;;;;;;;;5116950;28;21108;-73
2023/01/31 15:27:14;;;;;;;12.53;1.90;;;;;;;;;;5114451;28;20443;-73
2023/01/31 15:29:52;;;;;;;5.07;3.10;;;;;;;;;;5105170;28;20457;-74
2023/01/31 15:32:23;;;;;;;4.90;1.70;;;;;;;;;;5114508;28;20854;-74